KCDS/CDS METAR and TAF weather

Enter ICAO airport designator
Station Type Date Time Source
KCDS METAR 2019/02/21 11:53 UTC NOAA

KCDS 211153Z AUTO 14010KT 10SM FEW120 06/M05 A2989 RMK AO2 SLP117 T00561050 10056 20044 50002


Station Type Date Time Source
KCDS Decoded METAR 2019/02/21 11:53 UTC NOAA

CHILDRESS MUNICIPAL AIRPORT, TX, United States (KCDS) 34-26N 100-17W 594M
Feb 21, 2019 - 06:53 AM EST / 2019.02.21 1153 UTC
Wind: from the SE (140 degrees) at 12 MPH (10 KT):0
Visibility: 10 mile(s):0
Sky conditions: mostly clear
Temperature: 42.1 F (5.6 C)
Dew Point: 23.0 F (-5.0 C)
Relative Humidity: 46%
Pressure (altimeter): 29.89 in. Hg (1012 hPa)
Pressure tendency: 0.01 inches (0.2 hPa) higher than three hours ago
ob: KCDS 211153Z AUTO 14010KT 10SM FEW120 06/M05 A2989 RMK AO2 SLP117 T00561050 10056 20044 50002
cycle: 12

Station Type Date Time Source
KCDS TAF 2019/02/21 12:22 UTC NOAA

TAF KCDS 211120Z 2112/2212 17007KT P6SM OVC250
FM211700 15016KT P6SM BKN250
FM220900 14007KT P6SM BKN025


Example: see airport list